Time;durP1;ratioP1;P1;durP2;ratioP2;P2;SDS_P1;SDS_P2;PMS_P1;PMS_P2;Temp;Humidity;BMP_temperature;BMP_pressure;BME280_temperature;BME280_humidity;BME280_pressure;Samples;Min_cycle;Max_cycle;Signal;HPM_P1;HPM_P2
2022/05/30 00:00:40;;;;;;;8.10;2.80;;;;;;;9.11;92.64;100047.59;5051613;28;20230;-77
2022/05/30 00:03:08;;;;;;;6.00;2.60;;;;;;;8.95;92.10;100052.22;5051356;28;20704;-76
2022/05/30 00:05:36;;;;;;;8.47;2.90;;;;;;;8.98;92.76;100046.13;5051540;28;20247;-77
2022/05/30 00:08:03;;;;;;;5.57;2.57;;;;;;;8.86;93.00;100036.81;5051467;28;20217;-76
2022/05/30 00:10:30;;;;;;;6.57;2.73;;;;;;;8.80;93.29;100031.72;5053148;28;20211;-77
2022/05/30 00:12:56;;;;;;;6.97;3.20;;;;;;;8.90;93.72;100014.16;5055587;28;20259;-76
2022/05/30 00:15:23;;;;;;;7.33;3.00;;;;;;;8.93;93.20;100022.75;5055597;28;20230;-76
2022/05/30 00:17:54;;;;;;;11.97;3.27;;;;;;;8.87;93.06;100027.25;5055687;28;20259;-77
2022/05/30 00:20:21;;;;;;;5.83;3.23;;;;;;;8.67;93.55;100027.59;5055443;28;20240;-77
2022/05/30 00:22:49;;;;;;;8.23;3.20;;;;;;;8.67;94.06;100027.59;5055697;28;20266;-77
2022/05/30 00:25:16;;;;;;;7.50;3.13;;;;;;;8.58;93.92;100020.81;5055184;28;20231;-77
2022/05/30 00:27:43;;;;;;;13.67;4.10;;;;;;;8.53;93.94;100010.47;5055219;28;20197;-77
2022/05/30 00:30:11;;;;;;;5.83;3.23;;;;;;;8.45;94.45;100008.91;5054947;28;20697;-77
2022/05/30 00:32:37;;;;;;;7.27;3.10;;;;;;;8.50;94.62;99989.75;5055104;28;20259;-77
2022/05/30 00:35:05;;;;;;;7.30;3.90;;;;;;;8.45;94.74;99983.75;5055277;28;20226;-76
2022/05/30 00:37:32;;;;;;;10.87;4.50;;;;;;;8.59;95.21;99977.47;5055336;28;20213;-76
2022/05/30 00:40:00;;;;;;;5.43;2.50;;;;;;;8.51;94.84;99983.66;5055043;28;20236;-76
2022/05/30 00:42:27;;;;;;;7.10;3.27;;;;;;;8.50;94.91;99978.47;5054588;28;20268;-76
2022/05/30 00:44:54;;;;;;;9.10;3.13;;;;;;;8.59;94.96;99982.66;5054860;28;20255;-77
2022/05/30 00:47:22;;;;;;;7.43;3.10;;;;;;;8.65;94.66;99987.75;5055041;28;20236;-76
2022/05/30 00:49:50;;;;;;;7.00;3.20;;;;;;;8.66;94.92;99979.91;5054898;28;20267;-76
2022/05/30 00:52:21;;;;;;;11.73;3.73;;;;;;;8.78;94.64;99980.56;5055786;28;20222;-78
2022/05/30 00:54:52;;;;;;;10.90;3.27;;;;;;;8.84;94.39;99985.63;5055498;28;20252;-77
2022/05/30 00:57:21;;;;;;;4.30;2.80;;;;;;;8.74;94.48;100001.44;5054760;28;20597;-77
2022/05/30 00:59:51;;;;;;;5.10;3.30;;;;;;;8.77;93.63;100005.72;5054890;28;20230;-77
2022/05/30 01:02:17;;;;;;;5.17;3.20;;;;;;;8.70;93.11;100019.72;5054960;28;20210;-77
2022/05/30 01:07:28;;;;;;;7.47;3.23;;;;;;;8.92;93.32;100025.41;5054749;28;20275;-77
2022/05/30 01:09:55;;;;;;;5.77;4.00;;;;;;;8.77;92.79;100042.16;5054518;28;20209;-77
2022/05/30 01:12:36;;;;;;;7.13;3.73;;;;;;;8.83;92.80;100042.03;5054348;28;20248;-77
2022/05/30 01:15:04;;;;;;;7.63;3.47;;;;;;;8.86;92.80;100038.53;5055057;28;20233;-77
2022/05/30 01:17:32;;;;;;;9.13;4.00;;;;;;;8.86;92.70;100036.81;5055412;28;20546;-77
2022/05/30 01:20:02;;;;;;;8.07;3.80;;;;;;;8.82;92.51;100036.88;5054124;28;20260;-77
2022/05/30 01:23:02;;;;;;;7.37;3.83;;;;;;;8.71;92.35;100031.88;5053769;28;20197;-77
2022/05/30 01:25:49;;;;;;;4.10;3.13;;;;;;;8.73;92.77;100019.69;5054548;28;20683;-77
2022/05/30 01:28:44;;;;;;;5.80;3.93;;;;;;;8.65;93.52;100008.56;5054154;28;20592;-77
2022/05/30 01:31:12;;;;;;;5.53;4.37;;;;;;;8.67;94.10;99993.78;5044657;28;20205;-77
2022/05/30 01:33:39;;;;;;;5.97;4.30;;;;;;;8.77;94.07;99991.88;5054457;28;20449;-77
2022/05/30 01:36:06;;;;;;;8.00;3.80;;;;;;;8.67;93.84;99992.03;5054260;28;20205;-77
2022/05/30 01:38:33;;;;;;;6.80;5.13;;;;;;;8.52;94.00;99985.38;5054399;28;20205;-77
2022/05/30 01:41:00;;;;;;;9.30;3.80;;;;;;;8.51;93.92;99988.00;5053119;28;20229;-78
2022/05/30 01:43:27;;;;;;;6.57;3.77;;;;;;;8.42;94.39;99975.16;5053964;28;20279;-77
2022/05/30 01:45:54;;;;;;;8.20;4.10;;;;;;;8.43;93.69;99982.06;5054037;28;20210;-77
2022/05/30 01:48:22;;;;;;;12.83;6.17;;;;;;;8.40;93.78;99982.94;5054125;28;20646;-76
2022/05/30 01:50:49;;;;;;;8.77;4.33;;;;;;;8.49;94.11;99966.34;5053537;28;20671;-77
2022/05/30 01:53:15;;;;;;;10.87;3.87;;;;;;;8.39;94.71;99962.19;5053909;28;20251;-78
2022/05/30 01:55:42;;;;;;;7.13;4.00;;;;;;;8.45;94.56;99962.94;5054007;28;20251;-77
2022/05/30 01:58:08;;;;;;;7.87;4.10;;;;;;;8.42;94.67;99965.59;5053892;28;20201;-78
2022/05/30 02:00:36;;;;;;;11.73;4.00;;;;;;;8.42;94.74;99965.59;5053686;28;20229;-77
2022/05/30 02:03:04;;;;;;;7.37;4.00;;;;;;;8.53;93.91;99974.06;5053412;28;20582;-77
2022/05/30 02:05:33;;;;;;;7.17;3.70;;;;;;;8.34;93.54;99986.53;5053623;28;20267;-77
2022/05/30 02:07:59;;;;;;;6.13;3.50;;;;;;;8.33;93.71;99990.00;5053430;28;20567;-77
2022/05/30 02:10:26;;;;;;;11.87;4.00;;;;;;;8.26;93.22;99996.16;5053404;28;20252;-77
2022/05/30 02:12:52;;;;;;;6.80;3.03;;;;;;;8.30;93.97;99987.44;5053168;28;20255;-77
2022/05/30 02:15:19;;;;;;;7.03;3.33;;;;;;;8.29;94.33;99984.88;5053270;28;20708;-77
2022/05/30 02:17:44;;;;;;;4.47;3.17;;;;;;;8.18;94.01;99990.25;5053526;28;20201;-77
2022/05/30 02:20:12;;;;;;;8.17;3.17;;;;;;;8.32;93.22;99992.63;5053351;28;20298;-77
2022/05/30 02:22:39;;;;;;;6.57;2.70;;;;;;;8.25;92.95;100001.41;5053312;28;20576;-77
2022/05/30 02:25:07;;;;;;;6.40;2.43;;;;;;;8.23;nan;99992.78;5053036;28;20271;-77
2022/05/30 02:27:33;;;;;;;4.60;3.37;;;;;;;8.18;93.41;99994.59;5052922;28;20263;-77
2022/05/30 02:30:00;;;;;;;5.70;2.63;;;;;;;8.14;93.90;99989.44;5052841;28;20259;-77
2022/05/30 02:32:26;;;;;;;9.13;3.53;;;;;;;8.19;93.70;99984.19;5053412;28;20212;-77
2022/05/30 02:37:38;;;;;;;7.23;2.73;;;;;;;8.12;93.92;99986.00;5053138;28;20197;-77
2022/05/30 02:40:06;;;;;;;7.07;2.93;;;;;;;8.08;94.34;99989.53;5053071;28;20240;-77
2022/05/30 02:42:32;;;;;;;4.70;2.53;;;;;;;8.16;94.06;99984.22;5052954;28;20267;-77
2022/05/30 02:44:59;;;;;;;7.00;2.80;;;;;;;8.24;93.70;99987.53;5053759;28;20287;-78
2022/05/30 02:47:25;;;;;;;5.10;2.50;;;;;;;8.19;93.28;99994.56;5053162;28;20207;-77
2022/05/30 02:49:52;;;;;;;11.27;2.83;;;;;;;8.15;93.18;99993.75;5052941;28;20208;-78
2022/05/30 02:52:18;;;;;;;7.37;2.60;;;;;;;8.12;93.19;99991.19;5053044;28;20216;-78
2022/05/30 02:54:46;;;;;;;7.43;3.03;;;;;;;8.14;93.43;99993.78;5052081;28;20225;-77
2022/05/30 02:57:12;;;;;;;6.07;2.70;;;;;;;8.11;94.17;99979.09;5052477;28;20202;-77
2022/05/30 02:59:39;;;;;;;6.03;2.70;;;;;;;8.11;93.99;99986.91;5052496;28;20259;-77
2022/05/30 03:02:05;;;;;;;7.50;2.87;;;;;;;8.15;94.11;99992.91;5052637;28;20230;-77
2022/05/30 03:04:32;;;;;;;7.27;3.60;;;;;;;8.13;94.24;99982.53;5052307;28;20233;-77
2022/05/30 03:06:58;;;;;;;10.00;3.07;;;;;;;8.09;94.43;99982.63;5052150;28;20956;-77
2022/05/30 03:09:25;;;;;;;4.23;2.43;;;;;;;8.14;94.77;99983.38;5052009;28;20622;-77
2022/05/30 03:11:52;;;;;;;5.47;2.80;;;;;;;8.13;94.46;100000.72;5052264;28;20206;-77
2022/05/30 03:14:19;;;;;;;24.20;4.03;;;;;;;8.08;93.56;100007.72;5052214;28;20225;-77
2022/05/30 03:16:45;;;;;;;4.93;2.63;;;;;;;8.11;93.84;99992.09;5052499;28;20217;-77
2022/05/30 03:19:12;;;;;;;6.53;2.50;;;;;;;8.10;93.46;100003.34;5051808;28;20202;-77
2022/05/30 03:21:38;;;;;;;6.43;2.73;;;;;;;8.17;93.42;99998.94;5052181;28;20225;-77
2022/05/30 03:24:05;;;;;;;4.70;2.20;;;;;;;8.22;93.40;100004.06;5052328;28;20557;-78
2022/05/30 03:26:32;;;;;;;13.07;3.00;;;;;;;8.27;93.52;100017.84;5051979;28;20672;-77
2022/05/30 03:28:59;;;;;;;4.90;2.37;;;;;;;8.35;93.25;100027.22;5051708;28;20209;-77
2022/05/30 03:31:26;;;;;;;5.67;2.53;;;;;;;8.28;92.50;100033.41;5052262;28;20202;-77
2022/05/30 03:33:53;;;;;;;11.57;2.63;;;;;;;8.22;93.16;100028.31;5051905;28;20225;-77
2022/05/30 03:36:23;;;;;;;5.37;3.37;;;;;;;8.13;93.73;100013.72;5052025;28;20212;-77
2022/05/30 03:38:49;;;;;;;3.50;2.40;;;;;;;8.13;94.29;99994.69;5051587;28;20579;-77
2022/05/30 03:41:16;;;;;;;7.33;2.70;;;;;;;8.23;94.10;99993.63;5051576;28;20225;-77
2022/05/30 03:43:42;;;;;;;7.30;3.60;;;;;;;8.35;94.31;100000.38;5051561;28;20311;-77
2022/05/30 03:46:10;;;;;;;4.93;2.70;;;;;;;8.42;93.97;99998.56;5051823;28;20209;-77
2022/05/30 03:48:37;;;;;;;8.00;3.17;;;;;;;8.41;93.58;100007.22;5051941;28;20235;-77
2022/05/30 03:51:05;;;;;;;3.93;2.37;;;;;;;8.47;94.08;100013.19;5051977;28;20202;-77
2022/05/30 03:53:31;;;;;;;7.13;2.47;;;;;;;8.50;93.83;100009.69;5051387;28;20257;-77
2022/05/30 03:55:58;;;;;;;3.93;2.73;;;;;;;8.61;93.67;100015.56;5051856;28;20210;-77
2022/05/30 03:58:24;;;;;;;6.57;2.80;;;;;;;8.55;93.81;100026.94;5051596;28;20257;-77
2022/05/30 04:00:51;;;;;;;9.17;2.90;;;;;;;8.51;93.09;100034.81;5051470;28;20240;-77
2022/05/30 04:03:18;;;;;;;7.23;2.50;;;;;;;8.41;93.14;100035.81;5051969;28;20213;-77
2022/05/30 04:05:46;;;;;;;10.73;3.23;;;;;;;8.37;93.54;100021.16;5051760;28;20259;-77
2022/05/30 04:08:12;;;;;;;9.10;2.83;;;;;;;8.52;94.09;100020.91;5052505;28;20212;-78
2022/05/30 04:10:39;;;;;;;5.00;2.40;;;;;;;8.74;93.72;100016.19;5053424;28;20206;-77
2022/05/30 04:13:08;;;;;;;6.97;3.37;;;;;;;8.94;93.56;100021.03;5053271;28;20235;-77
2022/05/30 04:15:35;;;;;;;6.20;3.50;;;;;;;8.86;93.06;100039.41;5053758;28;20251;-78
2022/05/30 04:18:03;;;;;;;9.20;3.00;;;;;;;8.91;93.16;100031.50;5052829;28;20206;-78
2022/05/30 04:20:30;;;;;;;6.33;3.67;;;;;;;9.04;92.83;100037.31;5052816;28;20202;-78
2022/05/30 04:22:57;;;;;;;8.03;3.60;;;;;;;8.95;92.19;100053.97;5052753;28;20202;-78
2022/05/30 04:25:24;;;;;;;9.87;3.87;;;;;;;8.91;91.84;100070.53;5052116;28;20236;-78
2022/05/30 04:27:50;;;;;;;8.93;3.73;;;;;;;8.89;92.03;100082.72;5052108;28;20201;-77
2022/05/30 04:30:17;;;;;;;7.73;3.30;;;;;;;8.74;91.10;100094.25;5052303;28;20262;-78
2022/05/30 04:32:44;;;;;;;5.77;3.13;;;;;;;8.59;92.02;100090.16;5052312;28;20204;-78
2022/05/30 04:35:10;;;;;;;6.23;3.17;;;;;;;8.55;92.98;100067.69;5052144;28;20221;-78
2022/05/30 04:37:38;;;;;;;5.60;2.90;;;;;;;8.60;92.27;100075.41;5051691;28;20216;-77
2022/05/30 04:40:06;;;;;;;5.70;3.00;;;;;;;8.50;91.72;100070.38;5051557;28;20263;-78
2022/05/30 04:42:33;;;;;;;5.63;3.13;;;;;;;8.48;91.87;100084.28;5050729;28;20225;-78
2022/05/30 04:44:59;;;;;;;5.77;3.20;;;;;;;8.53;92.79;100065.13;5051122;28;20233;-77
2022/05/30 04:47:26;;;;;;;5.20;2.97;;;;;;;8.60;92.82;100063.25;5051538;28;20545;-77
2022/05/30 04:49:52;;;;;;;7.77;3.17;;;;;;;8.67;92.91;100066.63;5051153;28;20217;-78
2022/05/30 04:52:19;;;;;;;7.67;3.07;;;;;;;8.63;92.87;100064.97;5051533;28;20213;-77
2022/05/30 04:54:47;;;;;;;5.53;2.80;;;;;;;8.61;92.30;100074.53;5050463;28;20295;-77
2022/05/30 04:57:13;;;;;;;8.03;2.70;;;;;;;8.63;90.41;100115.25;5051920;28;20592;-77
2022/05/30 04:59:40;;;;;;;5.17;2.67;;;;;;;8.85;91.45;100109.69;5054293;28;20206;-78
2022/05/30 05:02:08;;;;;;;5.33;2.67;;;;;;;8.90;90.94;100118.25;5055414;28;20279;-77
2022/05/30 05:04:35;;;;;;;8.67;2.90;;;;;;;8.86;90.45;100127.91;5055091;28;20571;-77
2022/05/30 05:07:03;;;;;;;4.77;2.40;;;;;;;8.94;90.13;100159.00;5057436;28;20636;-78
2022/05/30 05:09:36;;;;;;;6.53;2.57;;;;;;;9.09;90.23;100148.31;5057283;28;20224;-77
2022/05/30 05:12:05;;;;;;;7.23;2.67;;;;;;;9.13;89.08;100169.94;5057306;28;20207;-77
2022/05/30 05:14:32;;;;;;;6.87;3.33;;;;;;;9.17;89.56;100187.22;5056279;28;20252;-77
2022/05/30 05:16:58;;;;;;;4.73;2.57;;;;;;;9.08;88.19;100214.31;5056277;28;20217;-77
2022/05/30 05:19:25;;;;;;;5.40;2.10;;;;;;;9.19;87.39;100239.28;5050964;28;20224;-78
2022/05/30 05:21:51;;;;;;;5.70;1.87;;;;;;;9.32;85.99;100274.69;5046180;28;20230;-77
2022/05/30 05:24:18;;;;;;;5.53;2.07;;;;;;;9.43;85.18;100297.94;5050362;28;20221;-78
2022/05/30 05:26:46;;;;;;;3.30;1.63;;;;;;;9.51;84.58;100329.94;5053997;28;20228;-77
2022/05/30 05:29:14;;;;;;;9.03;2.50;;;;;;;9.60;84.02;100347.19;5051834;28;20205;-78
2022/05/30 05:31:41;;;;;;;5.13;1.77;;;;;;;9.37;83.02;100390.06;5045273;28;20241;-77
2022/05/30 05:34:10;;;;;;;6.70;2.23;;;;;;;9.36;83.21;100392.72;5044426;28;20259;-76
2022/05/30 05:36:39;;;;;;;6.87;2.07;;;;;;;9.40;83.65;100379.63;5045326;28;20201;-77
2022/05/30 05:39:06;;;;;;;6.60;2.40;;;;;;;9.45;84.99;100346.50;5044677;28;20542;-77
2022/05/30 05:41:33;;;;;;;7.37;3.30;;;;;;;9.41;84.67;100342.25;5042419;28;20225;-76
2022/05/30 05:44:00;;;;;;;7.43;2.37;;;;;;;9.51;84.10;100348.16;5044608;28;20234;-76
2022/05/30 05:46:30;;;;;;;4.87;2.30;;;;;;;9.41;84.05;100351.81;5044601;28;20209;-76
2022/05/30 05:48:58;;;;;;;4.60;2.13;;;;;;;9.20;84.30;100364.28;5044777;28;20221;-76
2022/05/30 05:51:26;;;;;;;5.47;2.30;;;;;;;9.18;85.07;100337.41;5043895;28;20194;-76
2022/05/30 05:53:53;;;;;;;6.63;2.47;;;;;;;9.20;84.44;100334.78;5044023;28;20227;-76
2022/05/30 05:56:23;;;;;;;5.87;3.10;;;;;;;9.18;85.36;100302.66;5050114;28;20205;-77
2022/05/30 05:58:49;;;;;;;8.77;2.80;;;;;;;9.39;85.06;100298.88;5048565;28;20626;-77
2022/05/30 06:01:18;;;;;;;6.03;2.73;;;;;;;9.38;85.50;100311.03;5044918;28;20224;-75
2022/05/30 06:03:46;;;;;;;5.30;2.33;;;;;;;9.30;84.95;100324.19;5043232;28;20269;-75
2022/05/30 06:06:13;;;;;;;6.47;2.60;;;;;;;9.22;84.75;100328.66;5045224;28;20297;-75
2022/05/30 06:08:39;;;;;;;5.83;2.30;;;;;;;9.21;85.32;100308.69;5042392;28;20199;-74
2022/05/30 06:11:08;;;;;;;7.23;2.33;;;;;;;9.14;85.33;100301.88;5042542;28;20201;-75
2022/05/30 06:13:34;;;;;;;7.80;2.40;;;;;;;9.36;85.50;100299.78;5043916;28;20711;-75
2022/05/30 06:16:01;;;;;;;10.70;3.30;;;;;;;9.44;86.16;100289.25;5042574;28;20252;-75
2022/05/30 06:18:27;;;;;;;5.50;2.53;;;;;;;9.50;85.22;100304.78;5042205;28;20197;-75
2022/05/30 06:20:59;;;;;;;6.87;2.90;;;;;;;9.61;85.09;100313.25;5043310;28;20605;-76
2022/05/30 06:23:25;;;;;;;4.20;2.27;;;;;;;9.76;84.87;100313.91;5042902;28;20777;-75
2022/05/30 06:25:52;;;;;;;5.80;1.93;;;;;;;9.81;82.02;100395.47;5046170;28;20221;-75
2022/05/30 06:28:18;;;;;;;4.57;1.70;;;;;;;9.97;82.24;100416.94;5048216;28;20206;-75
2022/05/30 06:30:45;;;;;;;9.37;3.27;;;;;;;10.04;82.44;100418.56;5042660;28;20199;-75
2022/05/30 06:33:11;;;;;;;6.67;2.97;;;;;;;9.88;81.80;100447.50;5041260;28;20219;-75
2022/05/30 06:35:40;;;;;;;5.37;2.53;;;;;;;9.70;83.81;100391.28;5043175;28;20198;-75
2022/05/30 06:38:09;;;;;;;5.30;2.33;;;;;;;9.77;82.59;100393.81;5042704;28;20272;-75
2022/05/30 06:40:36;;;;;;;4.80;2.37;;;;;;;9.86;82.95;100404.94;5041225;28;20284;-75
2022/05/30 06:43:03;;;;;;;5.30;2.50;;;;;;;9.89;81.95;100417.06;5041947;28;20226;-75
2022/05/30 06:45:30;;;;;;;5.90;3.23;;;;;;;9.79;82.47;100420.69;5042926;28;20229;-75
2022/05/30 06:47:56;;;;;;;8.33;2.53;;;;;;;9.67;81.89;100432.19;5043282;28;20205;-75
2022/05/30 06:50:23;;;;;;;6.13;3.00;;;;;;;9.73;82.51;100411.22;5041782;28;20669;-75
2022/05/30 06:52:49;;;;;;;4.97;2.77;;;;;;;9.71;82.72;100411.28;5041114;28;20669;-76
2022/05/30 06:55:17;;;;;;;7.07;3.07;;;;;;;9.65;81.64;100432.22;5045907;28;20251;-75
2022/05/30 07:00:30;;;;;;;7.17;2.83;;;;;;;9.78;82.89;100403.34;5042980;28;20198;-75
2022/05/30 07:02:56;;;;;;;7.10;3.13;;;;;;;9.68;82.02;100439.97;5042938;28;20225;-75
2022/05/30 07:05:24;;;;;;;5.37;3.40;;;;;;;9.85;82.00;100429.31;5041495;28;20251;-75
2022/05/30 07:07:55;;;;;;;7.53;3.30;;;;;;;10.08;80.61;100461.94;5040720;28;20605;-75
2022/05/30 07:10:24;;;;;;;6.10;2.80;;;;;;;9.94;80.87;100477.81;5042939;28;20194;-75
2022/05/30 07:12:50;;;;;;;7.13;3.30;;;;;;;9.87;80.91;100477.06;5042610;28;20258;-75
2022/05/30 07:15:17;;;;;;;5.80;3.40;;;;;;;9.96;81.64;100459.56;5042975;28;20254;-75
2022/05/30 07:17:43;;;;;;;10.17;3.23;;;;;;;10.22;80.81;100466.94;5041660;28;20212;-75
2022/05/30 07:20:12;;;;;;;5.83;2.83;;;;;;;10.06;79.75;100523.72;5040197;28;20247;-76
2022/05/30 07:22:38;;;;;;;5.43;2.07;;;;;;;9.99;78.71;100550.75;5042642;28;20220;-75
2022/05/30 07:25:05;;;;;;;5.13;2.60;;;;;;;10.11;78.08;100554.06;5044309;28;20230;-75
2022/05/30 07:27:33;;;;;;;11.57;2.97;;;;;;;10.29;77.39;100575.53;5047254;28;20277;-75
2022/05/30 07:30:00;;;;;;;6.90;3.07;;;;;;;10.25;77.81;100592.13;5042580;28;20256;-75
2022/05/30 07:32:26;;;;;;;6.87;3.10;;;;;;;10.50;78.32;100566.50;5041188;28;20294;-75
2022/05/30 07:34:53;;;;;;;5.47;2.50;;;;;;;10.51;76.99;100596.97;5051420;28;20224;-75
2022/05/30 07:37:19;;;;;;;5.20;2.10;;;;;;;10.65;75.61;100644.59;5051870;28;20261;-75
2022/05/30 07:39:46;;;;;;;4.73;2.00;;;;;;;10.65;74.42;100688.09;5051614;28;20262;-76
2022/05/30 07:42:13;;;;;;;5.43;2.00;;;;;;;10.58;73.50;100721.25;5051854;28;20637;-75
2022/05/30 07:44:41;;;;;;;6.03;2.30;;;;;;;10.32;75.04;100716.41;5051417;28;20228;-75
2022/05/30 07:47:08;;;;;;;4.33;2.30;;;;;;;10.21;73.41;100703.47;5051946;28;20207;-75
2022/05/30 07:49:35;;;;;;;5.50;2.03;;;;;;;10.25;74.49;100715.59;5051533;28;20299;-75
2022/05/30 07:52:01;;;;;;;4.77;1.83;;;;;;;10.45;73.30;100717.97;5051735;28;20205;-76
2022/05/30 07:54:28;;;;;;;6.03;1.87;;;;;;;10.41;72.68;100759.78;5051082;28;20229;-75
2022/05/30 07:56:54;;;;;;;5.33;2.10;;;;;;;10.62;73.39;100742.97;5051721;28;20202;-75
2022/05/30 07:59:21;;;;;;;6.20;2.60;;;;;;;10.63;71.55;100756.00;5051094;28;20209;-75
2022/05/30 08:01:49;;;;;;;6.60;1.77;;;;;;;10.46;70.78;100821.47;5051581;28;20235;-75
2022/05/30 08:04:16;;;;;;;4.73;1.87;;;;;;;10.69;71.51;100784.63;5051671;28;20274;-76
2022/05/30 08:06:43;;;;;;;7.13;2.67;;;;;;;10.64;69.65;100840.41;5051241;28;20302;-76
2022/05/30 08:09:09;;;;;;;4.47;1.83;;;;;;;10.78;69.47;100861.09;5051391;28;20207;-75
2022/05/30 08:11:36;;;;;;;5.80;1.83;;;;;;;10.55;68.81;100884.91;5051724;28;20217;-76
2022/05/30 08:14:02;;;;;;;7.30;1.60;;;;;;;10.56;68.22;100886.63;5035161;28;20224;-75
2022/05/30 08:16:29;;;;;;;3.10;1.57;;;;;;;10.77;67.73;100917.69;5031683;28;20211;-75
2022/05/30 08:18:57;;;;;;;5.00;1.53;;;;;;;10.78;67.88;100921.16;5035016;28;20210;-75
2022/05/30 08:21:23;;;;;;;2.90;1.50;;;;;;;10.72;68.10;100919.47;5040801;28;20232;-76
2022/05/30 08:23:50;;;;;;;2.60;1.33;;;;;;;10.83;68.58;100908.94;5042032;28;20338;-76
2022/05/30 08:26:16;;;;;;;2.73;1.43;;;;;;;10.76;68.68;100862.88;5046585;28;20215;-75
2022/05/30 08:28:42;;;;;;;3.60;2.17;;;;;;;10.50;70.11;100872.78;5051175;28;20211;-75
2022/05/30 08:31:10;;;;;;;6.70;2.43;;;;;;;10.33;71.54;100812.06;5048467;28;20212;-76
2022/05/30 08:33:37;;;;;;;4.83;1.87;;;;;;;10.26;70.28;100794.72;5051821;28;20228;-75
2022/05/30 08:36:07;;;;;;;2.30;1.27;;;;;;;10.46;69.53;100838.88;5046678;28;20199;-76
2022/05/30 08:38:34;;;;;;;5.40;2.60;;;;;;;10.24;69.99;100846.06;5045322;28;20200;-75
2022/05/30 08:43:50;;;;;;;3.20;1.67;;;;;;;10.39;72.62;100762.41;5053315;28;20240;-75
2022/05/30 08:46:33;;;;;;;5.20;1.83;;;;;;;10.61;72.76;100746.47;5051821;28;20203;-76
2022/05/30 08:49:13;;;;;;;3.53;1.60;;;;;;;10.71;72.17;100759.34;5048454;28;20196;-76
2022/05/30 08:51:58;;;;;;;7.37;2.10;;;;;;;10.41;74.04;100737.16;5049690;28;20264;-77
2022/05/30 08:54:36;;;;;;;5.03;1.77;;;;;;;10.40;74.60;100685.00;5054623;28;20314;-79
2022/05/30 08:57:05;;;;;;;4.83;2.07;;;;;;;10.59;73.42;100696.03;5048465;28;20289;-81
2022/05/30 08:59:44;;;;;;;4.43;1.60;;;;;;;10.55;71.67;100751.78;5058317;28;20256;-78
2022/05/30 09:02:17;;;;;;;5.43;1.50;;;;;;;10.52;71.85;100765.72;5059271;28;20714;-78
2022/05/30 09:04:49;;;;;;;6.40;2.27;;;;;;;10.46;71.11;100799.72;5059718;28;20857;-79
2022/05/30 09:07:21;;;;;;;3.70;1.70;;;;;;;10.55;69.54;100832.69;5058370;28;20203;-82
2022/05/30 09:09:55;;;;;;;3.77;1.53;;;;;;;10.59;70.06;100852.66;5055259;28;20291;-80
2022/05/30 09:12:31;;;;;;;2.20;1.37;;;;;;;10.91;69.49;100845.25;5047071;28;20667;-79
2022/05/30 09:15:02;;;;;;;3.20;1.27;;;;;;;11.24;69.45;100848.28;5048491;28;20229;-79
2022/05/30 09:17:34;;;;;;;3.20;1.20;;;;;;;11.46;67.22;100926.38;5053589;28;20209;-79
2022/05/30 09:20:05;;;;;;;2.87;1.73;;;;;;;11.33;62.37;101002.31;5059478;28;20301;-81
2022/05/30 09:22:33;;;;;;;3.50;1.10;;;;;;;11.27;62.38;101099.09;5056811;28;20223;-79
2022/05/30 09:27:44;;;;;;;2.70;1.00;;;;;;;11.57;62.38;101096.16;5057582;28;20224;-78
2022/05/30 09:30:16;;;;;;;2.70;1.33;;;;;;;11.65;61.40;101094.28;5058931;28;20257;-79
2022/05/30 09:32:47;;;;;;;2.73;1.10;;;;;;;11.66;60.96;101122.19;5058483;28;20207;-82
2022/05/30 09:35:25;;;;;;;3.20;1.10;;;;;;;11.43;60.64;101143.38;5060152;28;20252;-78
2022/05/30 09:38:06;;;;;;;3.50;1.00;;;;;;;11.66;60.22;101136.13;5059914;28;20194;-79
2022/05/30 09:40:41;;;;;;;3.40;0.87;;;;;;;11.67;61.19;101144.81;5059040;28;20201;-79
2022/05/30 09:43:22;;;;;;;2.37;0.93;;;;;;;11.85;61.88;101105.38;5058284;28;20317;-79
2022/05/30 09:45:49;;;;;;;3.07;1.03;;;;;;;11.88;60.35;101096.63;5058448;28;20203;-79
2022/05/30 09:48:19;;;;;;;2.70;1.30;;;;;;;11.97;60.59;101117.47;5057495;28;20211;-77
2022/05/30 09:50:48;;;;;;;5.97;1.30;;;;;;;12.09;61.75;101116.41;5056998;28;20235;-79
2022/05/30 09:53:42;;;;;;;5.13;1.37;;;;;;;11.92;61.24;101111.41;5059309;28;20202;-78
2022/05/30 09:56:09;;;;;;;3.77;1.00;;;;;;;11.82;62.91;101079.25;5059545;28;20258;-79
2022/05/30 09:58:45;;;;;;;2.40;1.40;;;;;;;11.79;63.61;101036.56;5059093;28;20202;-80
2022/05/30 10:01:12;;;;;;;3.03;1.53;;;;;;;11.88;63.06;101042.53;5063495;28;20233;-80
2022/05/30 10:03:42;;;;;;;4.80;1.40;;;;;;;11.73;62.61;101048.88;5059390;28;20229;-79
2022/05/30 10:06:15;;;;;;;3.93;1.50;;;;;;;11.71;63.62;101029.72;5059958;28;20257;-79
2022/05/30 10:08:43;;;;;;;2.83;1.33;;;;;;;11.82;64.16;101019.09;5064440;28;20207;-79
2022/05/30 10:11:25;;;;;;;4.50;1.40;;;;;;;11.52;64.38;101041.31;5062050;28;20207;-79
2022/05/30 10:13:53;;;;;;;4.80;1.20;;;;;;;11.53;64.97;100995.97;5061300;28;20230;-80
2022/05/30 10:16:30;;;;;;;2.60;1.30;;;;;;;11.76;64.29;100974.72;5063769;28;20737;-79
2022/05/30 10:18:59;;;;;;;3.87;1.50;;;;;;;12.02;64.90;100971.72;5060104;28;20191;-79
2022/05/30 10:21:39;;;;;;;3.23;1.20;;;;;;;12.30;65.15;100974.72;5060670;28;20208;-79
2022/05/30 10:30:10;;;;;;;2.03;1.40;;;;;;;11.83;63.07;101051.34;5039146;28;20209;-79
2022/05/30 10:32:48;;;;;;;3.07;1.30;;;;;;;11.60;64.17;101034.22;5039201;28;20199;-79
2022/05/30 10:35:27;;;;;;;2.20;1.20;;;;;;;11.32;64.79;101015.44;5038618;28;20272;-80
2022/05/30 10:38:19;;;;;;;3.23;1.40;;;;;;;11.29;64.15;100994.53;5038938;28;20190;-80
2022/05/30 10:41:01;;;;;;;5.80;1.87;;;;;;;11.38;65.61;100981.38;5039606;28;20210;-79
2022/05/30 10:43:39;;;;;;;4.27;1.40;;;;;;;11.69;65.77;100970.44;5041496;28;20255;-80
2022/05/30 10:46:09;;;;;;;3.53;1.30;;;;;;;11.84;65.69;100961.53;5040660;28;20559;-79
2022/05/30 10:48:38;;;;;;;4.13;1.20;;;;;;;11.79;65.17;100953.72;5041109;28;20218;-79
2022/05/30 10:51:11;;;;;;;5.10;2.23;;;;;;;11.73;66.04;100965.19;5041097;28;20223;-79
2022/05/30 10:53:48;;;;;;;4.10;1.50;;;;;;;11.39;65.79;100990.06;5040610;28;20223;-79
2022/05/30 10:56:23;;;;;;;3.87;1.20;;;;;;;11.59;65.74;100974.94;5056989;28;20210;-80
2022/05/30 10:58:57;;;;;;;3.33;1.23;;;;;;;11.68;65.25;100973.97;5054083;28;20227;-80
2022/05/30 11:01:45;;;;;;;4.07;1.23;;;;;;;11.86;65.49;100978.91;5063905;28;20256;-80
2022/05/30 11:04:26;;;;;;;5.63;1.20;;;;;;;12.02;65.05;100981.31;5060883;28;20231;-80
2022/05/30 11:06:58;;;;;;;4.37;1.47;;;;;;;12.04;64.51;100988.25;5061644;28;20229;-79
2022/05/30 11:09:31;;;;;;;3.33;1.47;;;;;;;12.16;64.85;101007.28;5061037;28;20198;-80
2022/05/30 11:12:02;;;;;;;4.03;1.40;;;;;;;12.37;63.37;101020.00;5060053;28;20203;-82
2022/05/30 11:14:42;;;;;;;3.73;1.13;;;;;;;12.42;62.64;101040.88;5059504;28;20251;-80
2022/05/30 11:17:18;;;;;;;4.90;1.70;;;;;;;12.40;62.23;101045.25;5060004;28;20819;-80
2022/05/30 11:19:59;;;;;;;3.13;1.20;;;;;;;12.16;62.02;101054.38;5061517;28;20238;-79
2022/05/30 11:22:34;;;;;;;2.33;1.40;;;;;;;12.36;64.29;101035.72;5060755;28;20231;-79
2022/05/30 11:25:00;;;;;;;2.67;1.10;;;;;;;12.23;63.22;101033.31;5058678;28;20236;-81
2022/05/30 11:27:35;;;;;;;4.73;1.37;;;;;;;12.22;62.61;101049.03;5058410;28;20625;-82
2022/05/30 11:30:18;;;;;;;2.83;1.20;;;;;;;12.45;62.68;101044.31;5058961;28;20294;-82
2022/05/30 11:33:06;;;;;;;1.37;0.97;;;;;;;12.43;62.00;101051.31;5059890;28;20294;-82
2022/05/30 11:35:35;;;;;;;2.93;1.30;;;;;;;12.32;62.22;101071.56;5058574;28;20206;-82
2022/05/30 11:38:14;;;;;;;3.03;1.20;;;;;;;12.01;61.64;101103.44;5060417;28;20221;-82
2022/05/30 11:40:51;;;;;;;2.93;0.90;;;;;;;11.80;63.97;101069.69;5059350;28;20207;-82
2022/05/30 11:43:49;;;;;;;3.87;1.10;;;;;;;11.46;63.48;101057.06;5059580;28;20229;-81
2022/05/30 11:46:25;;;;;;;3.73;1.20;;;;;;;11.59;65.00;101019.41;5059455;28;20199;-81
2022/05/30 11:48:57;;;;;;;4.10;1.63;;;;;;;11.75;63.88;101025.28;5056608;28;20226;-82
2022/05/30 11:51:39;;;;;;;3.30;1.30;;;;;;;11.75;63.52;101027.91;5057521;28;20336;-82
2022/05/30 11:54:34;;;;;;;2.70;1.00;;;;;;;11.71;64.41;101006.19;5057402;28;20230;-82
2022/05/30 11:57:13;;;;;;;2.60;0.93;;;;;;;11.85;64.59;101000.75;5049856;28;20211;-81
2022/05/30 11:59:56;;;;;;;2.10;0.97;;;;;;;11.78;63.91;100993.88;5057890;28;20250;-82
2022/05/30 12:02:26;;;;;;;2.03;0.90;;;;;;;11.72;64.23;101015.75;5059000;28;20221;-82